sensor_id;sensor_type;location;lat;lon;timestamp;temperature;humidity
20680;DHT22;10499;47.494;7.608;2022-08-18T00:00:36;17.70;99.90
20680;DHT22;10499;47.494;7.608;2022-08-18T00:03:07;17.80;99.90
20680;DHT22;10499;47.494;7.608;2022-08-18T00:05:33;17.80;99.90
20680;DHT22;10499;47.494;7.608;2022-08-18T00:07:58;17.80;99.90
20680;DHT22;10499;47.494;7.608;2022-08-18T00:10:26;17.80;99.90
20680;DHT22;10499;47.494;7.608;2022-08-18T00:12:52;17.80;99.90
20680;DHT22;10499;47.494;7.608;2022-08-18T00:15:19;17.80;99.90
20680;DHT22;10499;47.494;7.608;2022-08-18T00:17:45;17.70;99.90
20680;DHT22;10499;47.494;7.608;2022-08-18T00:20:15;17.70;99.90
20680;DHT22;10499;47.494;7.608;2022-08-18T00:22:41;17.70;99.90
20680;DHT22;10499;47.494;7.608;2022-08-18T00:25:10;17.70;99.90
20680;DHT22;10499;47.494;7.608;2022-08-18T00:27:37;17.60;99.90
20680;DHT22;10499;47.494;7.608;2022-08-18T00:30:07;17.60;99.90
20680;DHT22;10499;47.494;7.608;2022-08-18T00:32:37;17.60;99.90
20680;DHT22;10499;47.494;7.608;2022-08-18T00:35:10;17.60;99.90
20680;DHT22;10499;47.494;7.608;2022-08-18T00:37:38;17.60;99.90
20680;DHT22;10499;47.494;7.608;2022-08-18T00:40:08;17.50;99.90
20680;DHT22;10499;47.494;7.608;2022-08-18T00:42:41;17.50;99.90
20680;DHT22;10499;47.494;7.608;2022-08-18T00:45:12;17.40;99.90
20680;DHT22;10499;47.494;7.608;2022-08-18T00:47:38;17.40;99.90
20680;DHT22;10499;47.494;7.608;2022-08-18T00:50:04;17.50;99.90
20680;DHT22;10499;47.494;7.608;2022-08-18T00:52:30;17.50;99.90
20680;DHT22;10499;47.494;7.608;2022-08-18T00:54:56;17.50;99.90
20680;DHT22;10499;47.494;7.608;2022-08-18T00:57:22;17.40;99.90
20680;DHT22;10499;47.494;7.608;2022-08-18T00:59:57;17.30;99.90
20680;DHT22;10499;47.494;7.608;2022-08-18T01:02:32;17.30;99.90
20680;DHT22;10499;47.494;7.608;2022-08-18T01:05:20;17.20;99.90
20680;DHT22;10499;47.494;7.608;2022-08-18T01:07:47;17.20;99.90
20680;DHT22;10499;47.494;7.608;2022-08-18T01:10:16;17.20;99.90
20680;DHT22;10499;47.494;7.608;2022-08-18T01:12:45;17.10;99.90
20680;DHT22;10499;47.494;7.608;2022-08-18T01:15:12;17.20;99.90
20680;DHT22;10499;47.494;7.608;2022-08-18T01:17:39;17.20;99.90
20680;DHT22;10499;47.494;7.608;2022-08-18T01:20:33;17.30;99.90
20680;DHT22;10499;47.494;7.608;2022-08-18T01:23:20;17.30;99.90
20680;DHT22;10499;47.494;7.608;2022-08-18T01:25:47;17.30;99.90
20680;DHT22;10499;47.494;7.608;2022-08-18T01:28:39;17.30;99.90
20680;DHT22;10499;47.494;7.608;2022-08-18T01:31:05;17.40;99.90
20680;DHT22;10499;47.494;7.608;2022-08-18T01:33:38;17.50;99.90
20680;DHT22;10499;47.494;7.608;2022-08-18T01:36:14;17.50;99.90
20680;DHT22;10499;47.494;7.608;2022-08-18T01:38:41;17.60;99.90
20680;DHT22;10499;47.494;7.608;2022-08-18T01:41:07;17.60;99.90
20680;DHT22;10499;47.494;7.608;2022-08-18T01:43:34;17.70;99.90
20680;DHT22;10499;47.494;7.608;2022-08-18T01:46:01;17.80;99.90
20680;DHT22;10499;47.494;7.608;2022-08-18T01:48:29;17.80;99.90
20680;DHT22;10499;47.494;7.608;2022-08-18T01:50:57;17.60;99.90
20680;DHT22;10499;47.494;7.608;2022-08-18T01:53:23;17.50;99.90
20680;DHT22;10499;47.494;7.608;2022-08-18T01:55:49;17.50;99.90
20680;DHT22;10499;47.494;7.608;2022-08-18T01:58:14;17.50;99.90
20680;DHT22;10499;47.494;7.608;2022-08-18T02:00:40;17.40;99.90
20680;DHT22;10499;47.494;7.608;2022-08-18T02:03:10;17.40;99.90
20680;DHT22;10499;47.494;7.608;2022-08-18T02:05:41;17.40;99.90
20680;DHT22;10499;47.494;7.608;2022-08-18T02:08:07;17.30;99.90
20680;DHT22;10499;47.494;7.608;2022-08-18T02:10:33;17.40;99.90
20680;DHT22;10499;47.494;7.608;2022-08-18T02:12:59;17.40;99.90
20680;DHT22;10499;47.494;7.608;2022-08-18T02:15:24;17.50;99.90
20680;DHT22;10499;47.494;7.608;2022-08-18T02:17:50;17.50;99.90
20680;DHT22;10499;47.494;7.608;2022-08-18T02:20:17;17.60;99.90
20680;DHT22;10499;47.494;7.608;2022-08-18T02:22:44;17.60;99.90
20680;DHT22;10499;47.494;7.608;2022-08-18T02:25:11;17.70;99.90
20680;DHT22;10499;47.494;7.608;2022-08-18T02:27:37;17.70;99.90
20680;DHT22;10499;47.494;7.608;2022-08-18T02:30:06;17.80;99.90
20680;DHT22;10499;47.494;7.608;2022-08-18T02:32:33;17.80;99.90
20680;DHT22;10499;47.494;7.608;2022-08-18T02:34:59;17.80;99.90
20680;DHT22;10499;47.494;7.608;2022-08-18T02:37:25;17.80;99.90
20680;DHT22;10499;47.494;7.608;2022-08-18T02:39:50;17.80;99.90
20680;DHT22;10499;47.494;7.608;2022-08-18T02:42:17;17.70;99.90
20680;DHT22;10499;47.494;7.608;2022-08-18T02:44:43;17.70;99.90
20680;DHT22;10499;47.494;7.608;2022-08-18T02:47:09;17.70;99.90
20680;DHT22;10499;47.494;7.608;2022-08-18T02:49:35;17.70;99.90
20680;DHT22;10499;47.494;7.608;2022-08-18T02:52:01;17.60;99.90
20680;DHT22;10499;47.494;7.608;2022-08-18T02:54:27;17.60;99.90
20680;DHT22;10499;47.494;7.608;2022-08-18T02:56:53;17.50;99.90
20680;DHT22;10499;47.494;7.608;2022-08-18T02:59:23;17.40;99.90
20680;DHT22;10499;47.494;7.608;2022-08-18T03:01:51;17.30;99.90
20680;DHT22;10499;47.494;7.608;2022-08-18T03:04:24;17.40;99.90
20680;DHT22;10499;47.494;7.608;2022-08-18T03:06:52;17.40;99.90
20680;DHT22;10499;47.494;7.608;2022-08-18T03:09:18;17.40;99.90
20680;DHT22;10499;47.494;7.608;2022-08-18T03:11:44;17.50;99.90
20680;DHT22;10499;47.494;7.608;2022-08-18T03:14:12;17.50;99.90
20680;DHT22;10499;47.494;7.608;2022-08-18T03:16:42;17.40;99.90
20680;DHT22;10499;47.494;7.608;2022-08-18T03:19:08;17.40;99.90
20680;DHT22;10499;47.494;7.608;2022-08-18T03:21:36;17.40;99.90
20680;DHT22;10499;47.494;7.608;2022-08-18T03:24:04;17.40;99.90
20680;DHT22;10499;47.494;7.608;2022-08-18T03:26:31;17.40;99.90
20680;DHT22;10499;47.494;7.608;2022-08-18T03:28:58;17.40;99.90
20680;DHT22;10499;47.494;7.608;2022-08-18T03:31:27;17.40;99.90
20680;DHT22;10499;47.494;7.608;2022-08-18T03:33:54;17.40;99.90
20680;DHT22;10499;47.494;7.608;2022-08-18T03:36:23;17.40;99.90
20680;DHT22;10499;47.494;7.608;2022-08-18T03:38:50;17.30;99.90
20680;DHT22;10499;47.494;7.608;2022-08-18T03:41:20;17.40;99.90
20680;DHT22;10499;47.494;7.608;2022-08-18T03:43:47;17.40;99.90
20680;DHT22;10499;47.494;7.608;2022-08-18T03:46:14;17.40;99.90
20680;DHT22;10499;47.494;7.608;2022-08-18T03:48:42;17.40;99.90
20680;DHT22;10499;47.494;7.608;2022-08-18T03:53:41;17.40;99.90
20680;DHT22;10499;47.494;7.608;2022-08-18T03:56:16;17.40;99.90
20680;DHT22;10499;47.494;7.608;2022-08-18T03:58:43;17.40;99.90
20680;DHT22;10499;47.494;7.608;2022-08-18T04:01:13;17.30;99.90
20680;DHT22;10499;47.494;7.608;2022-08-18T04:03:45;17.30;99.90
20680;DHT22;10499;47.494;7.608;2022-08-18T04:06:20;17.30;99.90
20680;DHT22;10499;47.494;7.608;2022-08-18T04:08:49;17.40;99.90
20680;DHT22;10499;47.494;7.608;2022-08-18T04:11:15;17.40;99.90
20680;DHT22;10499;47.494;7.608;2022-08-18T04:13:41;17.50;99.90
20680;DHT22;10499;47.494;7.608;2022-08-18T04:16:07;17.50;99.90
20680;DHT22;10499;47.494;7.608;2022-08-18T04:18:32;17.50;99.90
20680;DHT22;10499;47.494;7.608;2022-08-18T04:21:03;17.50;99.90
20680;DHT22;10499;47.494;7.608;2022-08-18T04:23:29;17.50;99.90
20680;DHT22;10499;47.494;7.608;2022-08-18T04:25:59;17.60;99.90
20680;DHT22;10499;47.494;7.608;2022-08-18T04:28:26;17.60;99.90
20680;DHT22;10499;47.494;7.608;2022-08-18T04:30:53;17.70;99.90
20680;DHT22;10499;47.494;7.608;2022-08-18T04:33:19;17.60;99.90
20680;DHT22;10499;47.494;7.608;2022-08-18T04:35:45;17.50;99.90
20680;DHT22;10499;47.494;7.608;2022-08-18T04:38:12;17.50;99.90
20680;DHT22;10499;47.494;7.608;2022-08-18T04:40:38;17.50;99.90
20680;DHT22;10499;47.494;7.608;2022-08-18T04:43:06;17.40;99.90
20680;DHT22;10499;47.494;7.608;2022-08-18T04:45:36;17.40;99.90
20680;DHT22;10499;47.494;7.608;2022-08-18T04:48:04;17.40;99.90
20680;DHT22;10499;47.494;7.608;2022-08-18T04:50:30;17.30;99.90
20680;DHT22;10499;47.494;7.608;2022-08-18T04:52:55;17.30;99.90
20680;DHT22;10499;47.494;7.608;2022-08-18T04:55:48;17.30;99.90
20680;DHT22;10499;47.494;7.608;2022-08-18T04:58:16;17.30;99.90
20680;DHT22;10499;47.494;7.608;2022-08-18T05:00:47;17.40;99.90
20680;DHT22;10499;47.494;7.608;2022-08-18T05:03:20;17.40;99.90
20680;DHT22;10499;47.494;7.608;2022-08-18T05:05:52;17.40;99.90
20680;DHT22;10499;47.494;7.608;2022-08-18T05:08:18;17.40;99.90
20680;DHT22;10499;47.494;7.608;2022-08-18T05:10:43;17.50;99.90
20680;DHT22;10499;47.494;7.608;2022-08-18T05:13:09;17.50;99.90
20680;DHT22;10499;47.494;7.608;2022-08-18T05:15:35;17.50;99.90
20680;DHT22;10499;47.494;7.608;2022-08-18T05:18:02;17.60;99.90
20680;DHT22;10499;47.494;7.608;2022-08-18T05:20:28;17.60;99.90
20680;DHT22;10499;47.494;7.608;2022-08-18T05:22:54;17.60;99.90
20680;DHT22;10499;47.494;7.608;2022-08-18T05:27:46;17.60;99.90
20680;DHT22;10499;47.494;7.608;2022-08-18T05:30:12;17.70;99.90
20680;DHT22;10499;47.494;7.608;2022-08-18T05:32:42;17.70;99.90
20680;DHT22;10499;47.494;7.608;2022-08-18T05:35:20;17.80;99.90
20680;DHT22;10499;47.494;7.608;2022-08-18T05:40:41;17.90;99.90
20680;DHT22;10499;47.494;7.608;2022-08-18T05:43:07;18.00;99.90
20680;DHT22;10499;47.494;7.608;2022-08-18T05:45:34;18.00;99.90
20680;DHT22;10499;47.494;7.608;2022-08-18T05:48:00;18.00;99.90
20680;DHT22;10499;47.494;7.608;2022-08-18T05:50:27;18.10;99.90
20680;DHT22;10499;47.494;7.608;2022-08-18T05:53:00;18.10;99.90
20680;DHT22;10499;47.494;7.608;2022-08-18T05:55:43;18.20;99.90
20680;DHT22;10499;47.494;7.608;2022-08-18T05:58:45;18.30;99.90
20680;DHT22;10499;47.494;7.608;2022-08-18T06:01:18;18.30;99.90
20680;DHT22;10499;47.494;7.608;2022-08-18T06:03:52;18.60;99.90
20680;DHT22;10499;47.494;7.608;2022-08-18T06:06:23;18.90;99.90
20680;DHT22;10499;47.494;7.608;2022-08-18T06:11:22;19.60;99.90
20680;DHT22;10499;47.494;7.608;2022-08-18T06:13:49;19.80;99.90
20680;DHT22;10499;47.494;7.608;2022-08-18T06:16:27;20.20;99.90
20680;DHT22;10499;47.494;7.608;2022-08-18T06:21:49;20.60;99.90
20680;DHT22;10499;47.494;7.608;2022-08-18T06:24:34;20.90;99.90
20680;DHT22;10499;47.494;7.608;2022-08-18T06:30:05;20.70;99.90
20680;DHT22;10499;47.494;7.608;2022-08-18T06:32:56;20.60;99.90
20680;DHT22;10499;47.494;7.608;2022-08-18T06:35:51;20.50;99.90
20680;DHT22;10499;47.494;7.608;2022-08-18T06:41:21;20.40;99.90
20680;DHT22;10499;47.494;7.608;2022-08-18T06:44:09;20.40;99.90
20680;DHT22;10499;47.494;7.608;2022-08-18T06:46:47;20.30;99.90
20680;DHT22;10499;47.494;7.608;2022-08-18T06:52:20;20.50;99.90
20680;DHT22;10499;47.494;7.608;2022-08-18T06:54:47;20.60;99.90
20680;DHT22;10499;47.494;7.608;2022-08-18T06:57:32;20.60;99.90
20680;DHT22;10499;47.494;7.608;2022-08-18T07:00:20;20.50;99.90
20680;DHT22;10499;47.494;7.608;2022-08-18T07:02:56;20.40;99.90
20680;DHT22;10499;47.494;7.608;2022-08-18T07:10:44;19.80;99.90
20680;DHT22;10499;47.494;7.608;2022-08-18T07:15:41;19.70;99.90
20680;DHT22;10499;47.494;7.608;2022-08-18T07:18:11;19.80;99.90
20680;DHT22;10499;47.494;7.608;2022-08-18T07:20:44;19.70;99.90
20680;DHT22;10499;47.494;7.608;2022-08-18T07:23:25;19.60;99.90
20680;DHT22;10499;47.494;7.608;2022-08-18T07:26:09;19.50;99.90
20680;DHT22;10499;47.494;7.608;2022-08-18T07:28:40;19.40;99.90
20680;DHT22;10499;47.494;7.608;2022-08-18T07:31:33;19.30;99.90
20680;DHT22;10499;47.494;7.608;2022-08-18T07:34:12;19.40;99.90
20680;DHT22;10499;47.494;7.608;2022-08-18T07:36:46;19.50;99.90
20680;DHT22;10499;47.494;7.608;2022-08-18T07:39:29;19.60;99.90
20680;DHT22;10499;47.494;7.608;2022-08-18T07:42:02;19.60;99.90
20680;DHT22;10499;47.494;7.608;2022-08-18T07:44:57;19.60;99.90
20680;DHT22;10499;47.494;7.608;2022-08-18T07:47:41;19.80;99.90
20680;DHT22;10499;47.494;7.608;2022-08-18T07:50:10;20.10;99.90
20680;DHT22;10499;47.494;7.608;2022-08-18T07:52:39;20.30;99.90
20680;DHT22;10499;47.494;7.608;2022-08-18T08:00:23;21.70;99.90
20680;DHT22;10499;47.494;7.608;2022-08-18T08:06:01;22.40;99.90
20680;DHT22;10499;47.494;7.608;2022-08-18T08:08:34;22.50;99.90
20680;DHT22;10499;47.494;7.608;2022-08-18T08:11:38;22.40;99.90
20680;DHT22;10499;47.494;7.608;2022-08-18T08:14:52;22.30;99.90
20680;DHT22;10499;47.494;7.608;2022-08-18T08:17:12;22.10;99.90
20680;DHT22;10499;47.494;7.608;2022-08-18T08:30:45;22.40;99.90
20680;DHT22;10499;47.494;7.608;2022-08-18T08:33:25;22.60;99.90
20680;DHT22;10499;47.494;7.608;2022-08-18T08:36:06;22.90;99.90
20680;DHT22;10499;47.494;7.608;2022-08-18T08:38:45;23.00;99.90
20680;DHT22;10499;47.494;7.608;2022-08-18T08:41:30;23.20;99.90
20680;DHT22;10499;47.494;7.608;2022-08-18T08:44:33;23.40;99.90
20680;DHT22;10499;47.494;7.608;2022-08-18T08:47:04;23.20;99.90
20680;DHT22;10499;47.494;7.608;2022-08-18T08:49:43;23.00;99.90
20680;DHT22;10499;47.494;7.608;2022-08-18T08:52:50;22.80;99.90
20680;DHT22;10499;47.494;7.608;2022-08-18T08:55:24;22.50;99.90
20680;DHT22;10499;47.494;7.608;2022-08-18T09:00:38;22.10;99.90
20680;DHT22;10499;47.494;7.608;2022-08-18T09:08:37;22.30;99.90
20680;DHT22;10499;47.494;7.608;2022-08-18T09:13:55;23.00;99.90
20680;DHT22;10499;47.494;7.608;2022-08-18T09:24:30;27.00;91.50
20680;DHT22;10499;47.494;7.608;2022-08-18T09:40:13;29.00;77.30
20680;DHT22;10499;47.494;7.608;2022-08-18T09:45:55;31.00;73.40
20680;DHT22;10499;47.494;7.608;2022-08-18T09:48:29;31.40;69.60
20680;DHT22;10499;47.494;7.608;2022-08-18T09:51:19;31.20;69.90
20680;DHT22;10499;47.494;7.608;2022-08-18T09:53:53;31.00;69.30
20680;DHT22;10499;47.494;7.608;2022-08-18T10:04:32;29.90;71.00
20680;DHT22;10499;47.494;7.608;2022-08-18T10:07:14;29.10;73.40
20680;DHT22;10499;47.494;7.608;2022-08-18T10:13:03;28.30;75.80
20680;DHT22;10499;47.494;7.608;2022-08-18T10:21:16;30.40;72.10
20680;DHT22;10499;47.494;7.608;2022-08-18T10:31:30;30.00;69.40
20680;DHT22;10499;47.494;7.608;2022-08-18T10:34:02;29.80;71.60
20680;DHT22;10499;47.494;7.608;2022-08-18T10:39:06;29.60;71.70
20680;DHT22;10499;47.494;7.608;2022-08-18T10:41:36;29.30;71.50
20680;DHT22;10499;47.494;7.608;2022-08-18T10:44:04;29.10;73.30
20680;DHT22;10499;47.494;7.608;2022-08-18T10:46:35;28.50;74.20
20680;DHT22;10499;47.494;7.608;2022-08-18T10:57:17;27.20;78.20
20680;DHT22;10499;47.494;7.608;2022-08-18T11:00:06;27.10;78.30
20680;DHT22;10499;47.494;7.608;2022-08-18T11:05:23;28.10;77.10
20680;DHT22;10499;47.494;7.608;2022-08-18T11:07:54;28.50;74.90
20680;DHT22;10499;47.494;7.608;2022-08-18T11:10:37;28.70;74.60
20680;DHT22;10499;47.494;7.608;2022-08-18T11:13:13;28.50;73.30
20680;DHT22;10499;47.494;7.608;2022-08-18T11:16:21;28.50;74.60
20680;DHT22;10499;47.494;7.608;2022-08-18T11:18:46;28.60;74.20
20680;DHT22;10499;47.494;7.608;2022-08-18T11:24:23;28.40;72.80
20680;DHT22;10499;47.494;7.608;2022-08-18T11:27:02;28.90;72.10
20680;DHT22;10499;47.494;7.608;2022-08-18T11:29:35;29.90;71.50
20680;DHT22;10499;47.494;7.608;2022-08-18T11:32:34;30.50;68.60
20680;DHT22;10499;47.494;7.608;2022-08-18T11:45:55;29.40;68.30
20680;DHT22;10499;47.494;7.608;2022-08-18T11:51:01;28.10;73.10
20680;DHT22;10499;47.494;7.608;2022-08-18T11:53:38;27.60;74.50
20680;DHT22;10499;47.494;7.608;2022-08-18T12:07:05;25.70;82.10
20680;DHT22;10499;47.494;7.608;2022-08-18T12:09:48;25.50;83.10
20680;DHT22;10499;47.494;7.608;2022-08-18T12:12:32;25.40;83.70
20680;DHT22;10499;47.494;7.608;2022-08-18T12:18:15;25.40;83.70
20680;DHT22;10499;47.494;7.608;2022-08-18T12:20:44;25.60;83.10
20680;DHT22;10499;47.494;7.608;2022-08-18T12:23:10;25.70;82.70
20680;DHT22;10499;47.494;7.608;2022-08-18T12:25:35;25.90;82.80
20680;DHT22;10499;47.494;7.608;2022-08-18T12:28:01;26.10;82.40
20680;DHT22;10499;47.494;7.608;2022-08-18T12:30:27;26.40;81.60
20680;DHT22;10499;47.494;7.608;2022-08-18T12:32:52;26.40;81.00
20680;DHT22;10499;47.494;7.608;2022-08-18T12:35:18;26.60;80.70
20680;DHT22;10499;47.494;7.608;2022-08-18T12:37:44;27.10;79.70
20680;DHT22;10499;47.494;7.608;2022-08-18T12:40:10;28.10;77.10
20680;DHT22;10499;47.494;7.608;2022-08-18T12:42:36;28.20;75.40
20680;DHT22;10499;47.494;7.608;2022-08-18T12:45:02;28.10;74.50
20680;DHT22;10499;47.494;7.608;2022-08-18T12:47:28;28.00;74.90
20680;DHT22;10499;47.494;7.608;2022-08-18T12:49:57;27.90;75.00
20680;DHT22;10499;47.494;7.608;2022-08-18T12:52:23;27.80;75.30
20680;DHT22;10499;47.494;7.608;2022-08-18T12:54:49;28.10;75.80
20680;DHT22;10499;47.494;7.608;2022-08-18T12:57:26;28.40;74.20
20680;DHT22;10499;47.494;7.608;2022-08-18T12:59:58;28.30;74.10
20680;DHT22;10499;47.494;7.608;2022-08-18T13:02:24;28.20;74.50
20680;DHT22;10499;47.494;7.608;2022-08-18T13:04:49;28.30;74.60
20680;DHT22;10499;47.494;7.608;2022-08-18T13:07:15;28.50;74.70
20680;DHT22;10499;47.494;7.608;2022-08-18T13:09:42;28.30;74.40
20680;DHT22;10499;47.494;7.608;2022-08-18T13:12:09;28.30;74.50
20680;DHT22;10499;47.494;7.608;2022-08-18T13:14:35;28.60;74.00
20680;DHT22;10499;47.494;7.608;2022-08-18T13:36:55;29.00;71.90
20680;DHT22;10499;47.494;7.608;2022-08-18T19:23:47;22.00;99.90
20680;DHT22;10499;47.494;7.608;2022-08-18T19:26:22;22.00;99.90
20680;DHT22;10499;47.494;7.608;2022-08-18T19:28:55;22.00;99.90
20680;DHT22;10499;47.494;7.608;2022-08-18T19:31:31;22.00;99.90
20680;DHT22;10499;47.494;7.608;2022-08-18T19:34:06;21.90;99.90
20680;DHT22;10499;47.494;7.608;2022-08-18T20:20:33;21.70;99.90
20680;DHT22;10499;47.494;7.608;2022-08-18T20:23:32;21.60;99.90
20680;DHT22;10499;47.494;7.608;2022-08-18T20:25:59;21.50;99.90
20680;DHT22;10499;47.494;7.608;2022-08-18T20:31:09;21.40;99.90
20680;DHT22;10499;47.494;7.608;2022-08-18T20:33:40;21.20;99.90
20680;DHT22;10499;47.494;7.608;2022-08-18T20:36:28;21.10;99.90
20680;DHT22;10499;47.494;7.608;2022-08-18T20:38:57;21.00;99.90
20680;DHT22;10499;47.494;7.608;2022-08-18T20:41:43;20.90;99.90
20680;DHT22;10499;47.494;7.608;2022-08-18T20:47:30;21.00;99.90
20680;DHT22;10499;47.494;7.608;2022-08-18T20:50:22;20.90;99.90
20680;DHT22;10499;47.494;7.608;2022-08-18T20:55:54;21.10;99.90
20680;DHT22;10499;47.494;7.608;2022-08-18T20:58:25;21.10;99.90
20680;DHT22;10499;47.494;7.608;2022-08-18T21:00:56;21.10;99.90
20680;DHT22;10499;47.494;7.608;2022-08-18T21:03:36;21.10;99.90
20680;DHT22;10499;47.494;7.608;2022-08-18T21:06:03;21.20;99.90
20680;DHT22;10499;47.494;7.608;2022-08-18T21:08:31;21.20;99.90
20680;DHT22;10499;47.494;7.608;2022-08-18T21:11:04;21.10;99.90
20680;DHT22;10499;47.494;7.608;2022-08-18T21:16:11;21.00;99.90
20680;DHT22;10499;47.494;7.608;2022-08-18T21:18:38;21.00;99.90
20680;DHT22;10499;47.494;7.608;2022-08-18T21:21:11;20.90;99.90
20680;DHT22;10499;47.494;7.608;2022-08-18T21:23:39;20.90;99.90
20680;DHT22;10499;47.494;7.608;2022-08-18T21:26:07;20.90;99.90
20680;DHT22;10499;47.494;7.608;2022-08-18T21:28:36;20.90;99.90
20680;DHT22;10499;47.494;7.608;2022-08-18T21:31:31;21.00;99.90
20680;DHT22;10499;47.494;7.608;2022-08-18T21:34:05;21.00;99.90
20680;DHT22;10499;47.494;7.608;2022-08-18T21:36:33;21.00;99.90
20680;DHT22;10499;47.494;7.608;2022-08-18T21:39:06;21.00;99.90
20680;DHT22;10499;47.494;7.608;2022-08-18T21:41:32;20.90;99.90
20680;DHT22;10499;47.494;7.608;2022-08-18T21:44:14;20.90;99.90
20680;DHT22;10499;47.494;7.608;2022-08-18T21:46:42;21.00;99.90
20680;DHT22;10499;47.494;7.608;2022-08-18T21:49:09;21.00;99.90
20680;DHT22;10499;47.494;7.608;2022-08-18T21:51:47;21.00;99.90
20680;DHT22;10499;47.494;7.608;2022-08-18T21:54:30;21.00;99.90
20680;DHT22;10499;47.494;7.608;2022-08-18T21:57:25;21.00;99.90
20680;DHT22;10499;47.494;7.608;2022-08-18T22:00:13;20.90;99.90
20680;DHT22;10499;47.494;7.608;2022-08-18T22:02:48;20.60;99.90
20680;DHT22;10499;47.494;7.608;2022-08-18T22:05:29;20.40;99.90
20680;DHT22;10499;47.494;7.608;2022-08-18T22:07:55;20.30;99.90
20680;DHT22;10499;47.494;7.608;2022-08-18T22:10:29;20.30;99.90
20680;DHT22;10499;47.494;7.608;2022-08-18T22:13:21;20.20;99.90
20680;DHT22;10499;47.494;7.608;2022-08-18T22:16:27;20.20;99.90
20680;DHT22;10499;47.494;7.608;2022-08-18T22:22:03;20.20;99.90
20680;DHT22;10499;47.494;7.608;2022-08-18T22:24:54;20.30;99.90
20680;DHT22;10499;47.494;7.608;2022-08-18T22:27:23;20.30;99.90
20680;DHT22;10499;47.494;7.608;2022-08-18T22:29:58;20.30;99.90
20680;DHT22;10499;47.494;7.608;2022-08-18T22:32:32;20.40;99.90
20680;DHT22;10499;47.494;7.608;2022-08-18T22:35:00;20.50;99.90
20680;DHT22;10499;47.494;7.608;2022-08-18T22:37:29;20.50;99.90
20680;DHT22;10499;47.494;7.608;2022-08-18T22:40:06;20.50;99.90
20680;DHT22;10499;47.494;7.608;2022-08-18T22:42:35;20.50;99.90
20680;DHT22;10499;47.494;7.608;2022-08-18T22:45:04;20.50;99.90
20680;DHT22;10499;47.494;7.608;2022-08-18T22:47:31;20.50;99.90
20680;DHT22;10499;47.494;7.608;2022-08-18T22:50:00;20.40;99.90
20680;DHT22;10499;47.494;7.608;2022-08-18T22:52:32;20.30;99.90
20680;DHT22;10499;47.494;7.608;2022-08-18T22:55:00;20.20;99.90
20680;DHT22;10499;47.494;7.608;2022-08-18T22:57:26;20.20;99.90
20680;DHT22;10499;47.494;7.608;2022-08-18T22:59:52;20.10;99.90
20680;DHT22;10499;47.494;7.608;2022-08-18T23:02:19;20.00;99.90
20680;DHT22;10499;47.494;7.608;2022-08-18T23:04:46;20.00;99.90
20680;DHT22;10499;47.494;7.608;2022-08-18T23:07:14;19.90;99.90
20680;DHT22;10499;47.494;7.608;2022-08-18T23:09:39;19.90;99.90
20680;DHT22;10499;47.494;7.608;2022-08-18T23:12:11;19.90;99.90
20680;DHT22;10499;47.494;7.608;2022-08-18T23:14:40;20.00;99.90
20680;DHT22;10499;47.494;7.608;2022-08-18T23:17:09;20.00;99.90
20680;DHT22;10499;47.494;7.608;2022-08-18T23:19:35;20.10;99.90
20680;DHT22;10499;47.494;7.608;2022-08-18T23:22:02;20.10;99.90
20680;DHT22;10499;47.494;7.608;2022-08-18T23:24:30;20.20;99.90
20680;DHT22;10499;47.494;7.608;2022-08-18T23:26:57;20.20;99.90
20680;DHT22;10499;47.494;7.608;2022-08-18T23:29:23;20.20;99.90
20680;DHT22;10499;47.494;7.608;2022-08-18T23:31:49;20.10;99.90
20680;DHT22;10499;47.494;7.608;2022-08-18T23:34:18;20.10;99.90
20680;DHT22;10499;47.494;7.608;2022-08-18T23:36:52;20.10;99.90
20680;DHT22;10499;47.494;7.608;2022-08-18T23:39:19;20.10;99.90
20680;DHT22;10499;47.494;7.608;2022-08-18T23:41:46;20.00;99.90
20680;DHT22;10499;47.494;7.608;2022-08-18T23:44:11;19.90;99.90
20680;DHT22;10499;47.494;7.608;2022-08-18T23:46:38;19.90;99.90
20680;DHT22;10499;47.494;7.608;2022-08-18T23:49:06;19.90;99.90
20680;DHT22;10499;47.494;7.608;2022-08-18T23:51:45;19.90;99.90
20680;DHT22;10499;47.494;7.608;2022-08-18T23:54:16;19.90;99.90
20680;DHT22;10499;47.494;7.608;2022-08-18T23:56:42;19.90;99.90
20680;DHT22;10499;47.494;7.608;2022-08-18T23:59:08;19.90;99.90
